createdAt,value
2023-01-12T00:00:00.458Z,19.45
2023-01-12T00:02:27.953Z,15.85
2023-01-12T00:04:55.327Z,23.85
2023-01-12T00:07:26.264Z,10.98
2023-01-12T00:09:54.415Z,21.80
2023-01-12T00:12:22.531Z,21.35
2023-01-12T00:14:49.566Z,18.40
2023-01-12T00:17:19.249Z,20.15
2023-01-12T00:19:48.330Z,29.80
2023-01-12T00:22:16.801Z,25.38
2023-01-12T00:24:49.999Z,21.80
2023-01-12T00:27:21.344Z,18.20
2023-01-12T00:29:50.849Z,24.90
2023-01-12T00:32:19.989Z,17.10
2023-01-12T00:34:49.302Z,16.77
2023-01-12T00:37:16.734Z,17.67
2023-01-12T00:40:01.392Z,13.40
2023-01-12T00:42:51.608Z,28.50
2023-01-12T00:45:21.886Z,29.60
2023-01-12T00:47:50.140Z,16.02
2023-01-12T00:50:39.294Z,23.67
2023-01-12T00:53:06.411Z,24.58
2023-01-12T00:55:36.475Z,26.30
2023-01-12T00:58:04.731Z,18.65
2023-01-12T01:00:45.113Z,16.30
2023-01-12T01:03:14.555Z,18.48
2023-01-12T01:05:45.970Z,24.23
2023-01-12T01:08:13.300Z,15.85
2023-01-12T01:10:40.460Z,20.52
2023-01-12T01:13:07.707Z,15.35
2023-01-12T01:15:53.018Z,26.17
2023-01-12T01:19:19.593Z,22.23
2023-01-12T01:21:51.922Z,15.45
2023-01-12T01:24:25.439Z,15.25
2023-01-12T01:26:52.529Z,26.58
2023-01-12T01:29:19.885Z,28.55
2023-01-12T01:31:51.957Z,19.05
2023-01-12T01:34:19.634Z,17.20
2023-01-12T01:36:48.654Z,21.88
2023-01-12T01:39:15.906Z,13.77
2023-01-12T01:42:31.989Z,26.70
2023-01-12T01:45:06.484Z,23.85
2023-01-12T01:47:53.979Z,30.63
2023-01-12T01:50:44.096Z,16.80
2023-01-12T01:53:18.684Z,27.30
2023-01-12T01:55:51.129Z,18.15
2023-01-12T01:58:25.761Z,18.48
2023-01-12T02:00:54.487Z,28.00
2023-01-12T02:03:21.870Z,22.27
2023-01-12T02:05:50.198Z,27.38
2023-01-12T02:08:26.860Z,16.10
2023-01-12T02:10:55.974Z,15.15
2023-01-12T02:13:49.528Z,24.75
2023-01-12T02:17:01.303Z,16.30
2023-01-12T02:19:28.317Z,8.63
2023-01-12T02:22:24.822Z,19.05
2023-01-12T02:25:27.160Z,16.20
2023-01-12T02:28:25.137Z,16.17
2023-01-12T02:31:16.111Z,11.32
2023-01-12T02:34:10.390Z,16.92
2023-01-12T02:37:10.935Z,20.35
2023-01-12T02:40:16.103Z,21.55
2023-01-12T02:43:12.975Z,14.98
2023-01-12T02:46:15.515Z,20.98
2023-01-12T02:49:59.057Z,20.23
2023-01-12T02:57:07.074Z,11.05
2023-01-12T02:59:42.011Z,20.27
2023-01-12T03:02:13.923Z,11.25
2023-01-12T03:04:43.647Z,26.60
2023-01-12T03:11:39.677Z,14.93
2023-01-12T03:14:08.148Z,15.93
2023-01-12T03:16:36.288Z,26.88
2023-01-12T03:19:16.518Z,18.23
2023-01-12T03:21:52.737Z,19.13
2023-01-12T03:24:26.006Z,18.50
2023-01-12T03:27:00.005Z,14.77
2023-01-12T03:29:41.049Z,25.33
2023-01-12T03:32:08.562Z,35.42
2023-01-12T03:34:37.412Z,25.98
2023-01-12T03:37:27.144Z,19.08
2023-01-12T03:40:12.021Z,25.30
2023-01-12T03:43:13.985Z,22.08
2023-01-12T03:45:59.683Z,30.55
2023-01-12T03:48:34.898Z,22.77
2023-01-12T03:51:10.073Z,24.30
2023-01-12T03:53:39.347Z,20.98
2023-01-12T03:56:10.007Z,16.33
2023-01-12T03:58:40.179Z,18.40
2023-01-12T04:01:58.475Z,15.43
2023-01-12T04:04:56.476Z,15.63
2023-01-12T04:07:25.072Z,18.67
2023-01-12T04:09:53.092Z,17.33
2023-01-12T04:12:20.279Z,25.58
2023-01-12T04:14:48.712Z,7.65
2023-01-12T04:17:20.121Z,21.58
2023-01-12T04:19:50.282Z,21.83
2023-01-12T04:22:38.494Z,21.23
2023-01-12T04:25:20.642Z,20.75
2023-01-12T04:27:53.686Z,21.95
2023-01-12T04:30:24.798Z,27.73
2023-01-12T04:32:56.108Z,11.52
2023-01-12T04:35:26.463Z,15.45
2023-01-12T04:37:53.630Z,22.42
2023-01-12T04:40:21.778Z,15.82
2023-01-12T04:43:12.109Z,21.77
2023-01-12T04:45:41.015Z,21.42
2023-01-12T04:48:12.986Z,23.77
2023-01-12T04:50:45.467Z,23.98
2023-01-12T04:53:14.138Z,11.80
2023-01-12T04:55:42.887Z,19.80
2023-01-12T04:58:13.243Z,12.43
2023-01-12T05:01:10.920Z,10.55
2023-01-12T05:03:41.617Z,20.27
2023-01-12T05:10:57.746Z,15.93
2023-01-12T05:19:00.206Z,13.15
2023-01-12T05:24:11.337Z,12.25
2023-01-12T05:26:39.462Z,19.52
2023-01-12T05:29:13.790Z,25.08
2023-01-12T05:31:41.939Z,19.02
2023-01-12T05:34:10.940Z,13.52
2023-01-12T05:36:40.951Z,18.67
2023-01-12T05:39:09.061Z,17.42
2023-01-12T05:41:38.331Z,14.25
2023-01-12T05:44:06.998Z,17.70
2023-01-12T05:46:40.719Z,12.18
2023-01-12T05:49:11.156Z,18.75
2023-01-12T05:51:41.660Z,11.07
2023-01-12T05:54:09.888Z,17.45
2023-01-12T05:56:37.976Z,19.33
2023-01-12T05:59:07.701Z,10.70
2023-01-12T06:01:34.873Z,19.45
2023-01-12T06:04:08.054Z,22.20
2023-01-12T06:06:37.132Z,15.45
2023-01-12T06:09:07.760Z,14.50
2023-01-12T06:11:56.844Z,13.82
2023-01-12T06:14:24.083Z,14.45
2023-01-12T06:16:55.666Z,12.57
2023-01-12T06:20:18.216Z,17.98
2023-01-12T06:22:46.241Z,15.73
2023-01-12T06:25:14.257Z,13.57
2023-01-12T06:27:41.965Z,14.10
2023-01-12T06:30:10.775Z,21.23
2023-01-12T06:32:38.921Z,13.20
2023-01-12T06:35:17.885Z,13.10
2023-01-12T06:37:49.084Z,24.85
2023-01-12T06:40:16.517Z,16.13
2023-01-12T06:42:49.749Z,9.18
2023-01-12T06:45:17.982Z,8.57
2023-01-12T06:47:49.655Z,15.05
2023-01-12T06:50:20.142Z,7.13
2023-01-12T06:52:50.489Z,14.43
2023-01-12T06:55:19.146Z,14.50
2023-01-12T06:57:49.271Z,18.17
2023-01-12T07:00:20.598Z,15.43
2023-01-12T07:02:52.544Z,11.27
2023-01-12T07:05:19.494Z,12.35
2023-01-12T07:07:46.505Z,7.90
2023-01-12T07:10:14.757Z,13.18
2023-01-12T07:12:42.012Z,19.35
2023-01-12T07:15:09.856Z,15.70
2023-01-12T07:17:38.896Z,10.40
2023-01-12T07:20:07.571Z,5.38
2023-01-12T07:22:35.062Z,9.30
2023-01-12T07:25:02.248Z,19.50
2023-01-12T07:27:30.658Z,17.00
2023-01-12T07:29:58.327Z,9.05
2023-01-12T07:32:30.003Z,15.90
2023-01-12T07:35:00.081Z,13.87
2023-01-12T07:37:27.304Z,13.93
2023-01-12T07:39:57.602Z,18.33
2023-01-12T07:42:26.888Z,17.55
2023-01-12T07:44:53.932Z,21.83
2023-01-12T07:47:24.172Z,13.48
2023-01-12T07:49:52.159Z,19.30
2023-01-12T07:52:20.635Z,18.70
2023-01-12T07:54:47.932Z,15.10
2023-01-12T07:57:15.913Z,11.73
2023-01-12T07:59:43.772Z,15.85
2023-01-12T08:02:19.113Z,15.60
2023-01-12T08:04:49.811Z,8.80
2023-01-12T08:07:16.855Z,8.20
2023-01-12T08:09:43.972Z,8.75
2023-01-12T08:12:11.303Z,9.85
2023-01-12T08:14:40.355Z,8.27
2023-01-12T08:17:21.493Z,17.05
2023-01-12T08:19:54.254Z,11.90
2023-01-12T08:22:32.757Z,17.08
2023-01-12T08:25:34.250Z,9.57
2023-01-12T08:28:07.382Z,9.55
2023-01-12T08:30:36.228Z,18.23
2023-01-12T08:33:03.333Z,14.32
2023-01-12T08:35:34.125Z,8.43
2023-01-12T08:38:02.051Z,12.30
2023-01-12T08:40:49.977Z,19.33
2023-01-12T08:43:40.886Z,9.40
2023-01-12T08:46:11.033Z,11.05
2023-01-12T08:48:39.078Z,9.40
2023-01-12T08:51:10.469Z,11.05
2023-01-12T08:53:38.497Z,6.70
2023-01-12T08:56:06.411Z,11.45
2023-01-12T08:58:34.305Z,9.00
2023-01-12T09:01:09.874Z,12.07
2023-01-12T09:03:38.828Z,13.85
2023-01-12T09:06:15.753Z,8.13
2023-01-12T09:08:43.673Z,13.57
2023-01-12T09:11:12.144Z,12.55
2023-01-12T09:13:42.681Z,4.57
2023-01-12T09:16:16.193Z,8.50
2023-01-12T09:18:49.531Z,13.57
2023-01-12T09:21:39.185Z,7.30
2023-01-12T09:24:12.536Z,10.95
2023-01-12T09:26:45.731Z,7.50
2023-01-12T09:29:14.195Z,9.27
2023-01-12T09:31:44.471Z,13.65
2023-01-12T09:34:12.693Z,10.13
2023-01-12T09:36:42.157Z,11.30
2023-01-12T09:39:26.745Z,5.07
2023-01-12T09:42:13.999Z,8.63
2023-01-12T09:45:10.753Z,6.35
2023-01-12T09:47:48.659Z,8.95
2023-01-12T09:50:23.106Z,6.78
2023-01-12T09:53:21.819Z,11.43
2023-01-12T09:56:25.851Z,10.45
2023-01-12T09:59:32.669Z,13.93
2023-01-12T10:02:00.882Z,12.13
2023-01-12T10:04:27.991Z,8.10
2023-01-12T10:06:58.929Z,8.77
2023-01-12T10:09:26.808Z,15.90
2023-01-12T10:12:18.589Z,9.07
2023-01-12T10:15:12.812Z,13.73
2023-01-12T10:18:04.553Z,13.40
2023-01-12T10:20:45.909Z,9.93
2023-01-12T10:23:16.985Z,10.77
2023-01-12T10:25:49.533Z,8.05
2023-01-12T10:28:33.356Z,9.65
2023-01-12T10:31:03.262Z,9.05
2023-01-12T10:33:34.752Z,12.57
2023-01-12T10:36:16.426Z,8.68
2023-01-12T10:38:52.634Z,8.93
2023-01-12T10:41:22.173Z,15.68
2023-01-12T10:43:59.154Z,8.27
2023-01-12T10:46:32.532Z,15.63
2023-01-12T10:49:23.637Z,13.73
2023-01-12T10:52:02.318Z,5.97
2023-01-12T10:54:33.457Z,8.52
2023-01-12T10:57:12.935Z,13.40
2023-01-12T10:59:41.732Z,7.78
2023-01-12T11:02:13.942Z,5.13
2023-01-12T11:04:48.430Z,10.00
2023-01-12T11:07:26.555Z,10.45
2023-01-12T11:09:58.192Z,8.95
2023-01-12T11:12:38.927Z,3.20
2023-01-12T11:15:12.927Z,8.38
2023-01-12T11:17:59.302Z,8.88
2023-01-12T11:20:34.670Z,10.15
2023-01-12T11:23:08.893Z,4.68
2023-01-12T11:25:42.892Z,4.78
2023-01-12T11:28:30.034Z,3.90
2023-01-12T11:31:06.975Z,3.45
2023-01-12T11:33:49.490Z,2.67
2023-01-12T11:36:30.636Z,5.85
2023-01-12T11:39:14.209Z,6.85
2023-01-12T11:42:13.427Z,3.75
2023-01-12T11:45:14.266Z,7.85
2023-01-12T11:48:00.535Z,4.15
2023-01-12T11:50:39.665Z,9.13
2023-01-12T11:53:20.307Z,3.88
2023-01-12T11:56:14.825Z,3.70
2023-01-12T11:58:46.367Z,4.07
2023-01-12T12:01:35.667Z,4.47
2023-01-12T12:04:36.019Z,7.00
2023-01-12T12:07:24.882Z,2.63
2023-01-12T12:10:36.164Z,4.85
2023-01-12T12:13:17.949Z,7.55
2023-01-12T12:16:27.807Z,1.70
2023-01-12T12:19:10.026Z,9.23
2023-01-12T12:21:49.179Z,7.25
2023-01-12T12:24:37.839Z,4.78
2023-01-12T12:27:42.010Z,4.32
2023-01-12T12:30:46.215Z,4.30
2023-01-12T12:33:31.509Z,7.03
2023-01-12T12:36:23.258Z,3.60
2023-01-12T12:39:36.451Z,4.95
2023-01-12T12:42:57.947Z,3.80
2023-01-12T12:45:49.768Z,3.63
2023-01-12T12:48:25.817Z,4.82
2023-01-12T12:51:09.295Z,5.07
2023-01-12T12:53:42.051Z,4.68
2023-01-12T12:56:16.078Z,2.65
2023-01-12T12:58:49.177Z,9.43
2023-01-12T13:01:22.878Z,7.95
2023-01-12T13:03:54.863Z,5.00
2023-01-12T13:06:37.877Z,3.67
2023-01-12T13:09:27.729Z,6.20
2023-01-12T13:11:59.319Z,8.20
2023-01-12T13:14:38.816Z,9.93
2023-01-12T13:17:20.116Z,6.43
2023-01-12T13:19:51.887Z,2.70
2023-01-12T13:22:42.638Z,5.03
2023-01-12T13:25:20.948Z,7.97
2023-01-12T13:28:03.410Z,8.68
2023-01-12T13:30:31.390Z,7.88
2023-01-12T13:33:25.025Z,5.68
2023-01-12T13:35:51.907Z,4.88
2023-01-12T13:38:43.987Z,4.13
2023-01-12T13:41:47.119Z,3.63
2023-01-12T13:44:33.671Z,4.60
2023-01-12T13:47:09.744Z,3.65
2023-01-12T13:50:04.480Z,3.20
2023-01-12T13:52:35.442Z,4.22
2023-01-12T13:58:00.423Z,7.05
2023-01-12T14:00:35.069Z,2.72
2023-01-12T14:03:04.128Z,3.53
2023-01-12T14:05:57.494Z,5.50
2023-01-12T14:08:56.818Z,8.32
2023-01-12T14:11:50.693Z,4.78
2023-01-12T14:15:01.698Z,7.70
2023-01-12T14:17:57.542Z,6.05
2023-01-12T14:20:28.619Z,5.57
2023-01-12T14:23:33.864Z,6.75
2023-01-12T14:26:23.721Z,5.25
2023-01-12T14:28:52.267Z,5.03
2023-01-12T14:31:43.597Z,0.85
2023-01-12T14:34:35.117Z,3.97
2023-01-12T14:37:20.357Z,1.95
2023-01-12T14:39:47.711Z,5.18
2023-01-12T14:42:37.798Z,7.57
2023-01-12T14:45:41.035Z,1.10
2023-01-12T14:51:03.272Z,2.72
2023-01-12T14:53:33.888Z,7.38
2023-01-12T14:56:09.714Z,3.88
2023-01-12T14:58:38.608Z,6.35
2023-01-12T15:01:05.881Z,4.95
2023-01-12T15:03:43.111Z,5.30
2023-01-12T15:06:20.198Z,11.77
2023-01-12T15:08:56.539Z,4.53
2023-01-12T15:11:38.123Z,2.70
2023-01-12T15:14:19.354Z,5.43
2023-01-12T15:17:06.291Z,0.90
2023-01-12T15:19:51.934Z,4.60
2023-01-12T15:22:39.636Z,4.00
2023-01-12T15:25:36.655Z,7.55
2023-01-12T15:28:07.070Z,2.28
2023-01-12T15:30:38.903Z,3.97
2023-01-12T15:33:09.976Z,3.40
2023-01-12T15:35:47.074Z,1.73
2023-01-12T15:38:20.845Z,2.75
2023-01-12T15:40:49.341Z,2.47
2023-01-12T15:43:19.627Z,5.45
2023-01-12T15:45:47.714Z,0.70
2023-01-12T15:48:17.432Z,6.45
2023-01-12T15:50:47.283Z,3.47
2023-01-12T15:53:21.776Z,2.97
2023-01-12T15:55:49.560Z,1.65
2023-01-12T15:58:19.593Z,0.82
2023-01-12T16:00:50.337Z,1.40
2023-01-12T16:03:49.116Z,4.45
2023-01-12T16:06:07.920Z,2.67
2023-01-12T16:08:36.156Z,4.68
2023-01-12T16:11:11.674Z,2.08
2023-01-12T16:13:39.442Z,3.38
2023-01-12T16:16:08.058Z,7.35
2023-01-12T16:18:35.747Z,3.90
2023-01-12T16:21:06.119Z,4.93
2023-01-12T16:23:34.627Z,5.03
2023-01-12T16:26:02.418Z,4.03
2023-01-12T16:28:31.236Z,3.08
2023-01-12T16:31:05.527Z,4.80
2023-01-12T16:33:34.121Z,3.83
2023-01-12T16:36:03.900Z,5.93
2023-01-12T16:38:42.106Z,4.38
2023-01-12T16:41:14.319Z,4.95
2023-01-12T16:43:42.896Z,6.07
2023-01-12T16:46:13.982Z,1.50
2023-01-12T16:48:44.085Z,5.75
2023-01-12T16:51:17.700Z,4.60
2023-01-12T16:53:53.592Z,1.65
2023-01-12T16:56:24.074Z,3.78
2023-01-12T16:58:51.952Z,3.53
2023-01-12T17:01:22.551Z,3.05
2023-01-12T17:03:51.028Z,1.65
2023-01-12T17:06:21.696Z,4.72
2023-01-12T17:08:48.670Z,4.75
2023-01-12T17:11:24.135Z,4.28
2023-01-12T17:13:57.594Z,2.85
2023-01-12T17:16:29.642Z,5.28
2023-01-12T17:19:00.835Z,2.75
2023-01-12T17:21:29.605Z,7.03
2023-01-12T17:23:59.720Z,3.97
2023-01-12T17:26:32.293Z,1.27
2023-01-12T17:31:30.110Z,4.07
2023-01-12T17:33:58.554Z,3.45
2023-01-12T17:36:26.781Z,8.20
2023-01-12T17:38:55.144Z,5.35
2023-01-12T17:41:42.541Z,2.90
2023-01-12T17:44:10.912Z,6.85
2023-01-12T17:46:43.618Z,5.07
2023-01-12T17:49:13.479Z,2.88
2023-01-12T17:51:43.308Z,5.22
2023-01-12T17:54:18.112Z,5.47
2023-01-12T17:56:51.427Z,8.73
2023-01-12T17:59:25.567Z,6.43
2023-01-12T18:01:55.687Z,6.80
2023-01-12T18:04:23.182Z,3.13
2023-01-12T18:06:51.895Z,5.07
2023-01-12T18:09:19.085Z,4.82
2023-01-12T18:11:49.525Z,5.68
2023-01-12T18:14:21.191Z,8.68
2023-01-12T18:16:50.848Z,6.03
2023-01-12T18:19:19.739Z,3.22
2023-01-12T18:21:51.081Z,6.38
2023-01-12T18:24:32.820Z,6.38
2023-01-12T18:29:32.668Z,8.90
2023-01-12T18:31:59.689Z,5.63
2023-01-12T18:34:27.336Z,7.05
2023-01-12T18:36:54.602Z,8.55
2023-01-12T18:39:25.084Z,11.48
2023-01-12T18:42:10.894Z,10.18
2023-01-12T18:44:39.917Z,9.85
2023-01-12T18:47:31.636Z,9.55
2023-01-12T18:50:21.124Z,6.97
2023-01-12T18:53:06.995Z,10.00
2023-01-12T18:55:38.036Z,9.32
2023-01-12T18:58:08.338Z,6.13
2023-01-12T19:00:37.951Z,5.53
2023-01-12T19:03:09.780Z,7.45
2023-01-12T19:05:56.855Z,5.93
2023-01-12T19:08:46.921Z,8.63
2023-01-12T19:11:15.963Z,7.00
2023-01-12T19:14:07.990Z,7.72
2023-01-12T19:16:53.444Z,5.70
2023-01-12T19:19:27.668Z,6.22
2023-01-12T19:22:32.745Z,11.07
2023-01-12T19:28:30.114Z,9.73
2023-01-12T19:31:01.244Z,5.63
2023-01-12T19:33:30.135Z,9.20
2023-01-12T19:35:58.897Z,12.00
2023-01-12T19:38:27.039Z,11.75
2023-01-12T19:41:07.375Z,9.82
2023-01-12T19:43:40.859Z,8.38
2023-01-12T19:46:13.312Z,10.30
2023-01-12T19:48:44.578Z,7.55
2023-01-12T19:51:12.409Z,8.45
2023-01-12T19:53:41.377Z,7.07
2023-01-12T19:56:12.487Z,10.15
2023-01-12T19:58:47.196Z,7.38
2023-01-12T20:01:21.967Z,6.53
2023-01-12T20:03:51.401Z,8.93
2023-01-12T20:06:22.545Z,10.77
2023-01-12T20:08:54.142Z,5.43
2023-01-12T20:11:21.571Z,5.57
2023-01-12T20:13:54.667Z,3.53
2023-01-12T20:16:26.213Z,3.47
2023-01-12T20:19:02.568Z,3.42
2023-01-12T20:21:32.364Z,5.70
2023-01-12T20:24:05.664Z,7.50
2023-01-12T20:29:47.756Z,5.35
2023-01-12T20:32:15.029Z,5.00
2023-01-12T20:34:55.857Z,5.95
2023-01-12T20:37:37.983Z,8.30
2023-01-12T20:42:46.378Z,5.50
2023-01-12T20:46:21.352Z,3.60
2023-01-12T20:48:52.279Z,6.88
2023-01-12T20:51:29.097Z,3.35
2023-01-12T20:54:02.565Z,6.00
2023-01-12T20:56:30.746Z,7.88
2023-01-12T20:58:59.658Z,3.00
2023-01-12T21:01:29.290Z,4.03
2023-01-12T21:03:58.341Z,6.50
2023-01-12T21:06:28.701Z,1.48
2023-01-12T21:08:59.916Z,3.17
2023-01-12T21:11:27.342Z,4.35
2023-01-12T21:14:07.931Z,4.45
2023-01-12T21:16:36.390Z,3.28
2023-01-12T21:19:07.942Z,3.30
2023-01-12T21:21:46.383Z,4.93
2023-01-12T21:24:13.651Z,2.25
2023-01-12T21:26:41.700Z,3.38
2023-01-12T21:29:09.753Z,4.20
2023-01-12T21:31:38.961Z,2.65
2023-01-12T21:34:08.716Z,1.95
2023-01-12T21:36:36.779Z,3.33
2023-01-12T21:39:04.736Z,1.83
2023-01-12T21:41:54.220Z,4.22
2023-01-12T21:44:21.265Z,3.53
2023-01-12T21:46:49.066Z,3.03
2023-01-12T21:49:17.299Z,3.20
2023-01-12T21:51:47.853Z,4.13
2023-01-12T21:54:17.123Z,5.37
2023-01-12T21:56:44.418Z,5.32
2023-01-12T21:59:15.799Z,3.20
2023-01-12T22:01:43.090Z,2.83
2023-01-12T22:04:13.203Z,3.50
2023-01-12T22:06:40.512Z,3.88
2023-01-12T22:09:09.289Z,2.45
2023-01-12T22:11:40.839Z,3.28
2023-01-12T22:14:08.874Z,3.03
2023-01-12T22:16:36.963Z,3.67
2023-01-12T22:19:06.697Z,2.42
2023-01-12T22:21:34.915Z,4.15
2023-01-12T22:24:02.990Z,4.28
2023-01-12T22:26:30.699Z,4.30
2023-01-12T22:29:01.617Z,5.68
2023-01-12T22:31:30.012Z,4.07
2023-01-12T22:34:05.561Z,3.55
2023-01-12T22:36:35.660Z,2.15
2023-01-12T22:39:04.498Z,5.38
2023-01-12T22:41:32.490Z,3.10
2023-01-12T22:43:59.843Z,5.10
2023-01-12T22:46:29.537Z,7.32
2023-01-12T22:49:01.512Z,3.03
2023-01-12T22:51:30.956Z,9.38
2023-01-12T22:54:02.892Z,3.40
2023-01-12T22:56:29.828Z,5.18
2023-01-12T22:58:56.845Z,7.30
2023-01-12T23:01:25.975Z,5.13
2023-01-12T23:03:56.899Z,4.13
2023-01-12T23:06:28.061Z,4.45
2023-01-12T23:08:55.984Z,9.45
2023-01-12T23:11:25.862Z,5.85
2023-01-12T23:13:55.012Z,7.28
2023-01-12T23:16:23.529Z,7.00
2023-01-12T23:18:50.460Z,9.43
2023-01-12T23:21:22.209Z,8.68
2023-01-12T23:23:54.994Z,6.03
2023-01-12T23:26:24.646Z,6.35
2023-01-12T23:28:55.955Z,14.52
2023-01-12T23:31:29.217Z,11.63
2023-01-12T23:33:59.516Z,8.77
2023-01-12T23:36:30.363Z,9.82
2023-01-12T23:39:03.686Z,9.40
2023-01-12T23:41:35.002Z,6.88
2023-01-12T23:44:06.659Z,9.60
2023-01-12T23:46:37.105Z,15.77
2023-01-12T23:49:04.711Z,15.15
2023-01-12T23:51:36.312Z,9.95
2023-01-12T23:54:03.855Z,10.45
2023-01-12T23:56:32.973Z,12.27
2023-01-12T23:59:01.891Z,10.85
